Fruitvale, TN (38336)

03:52 CDT le 03 septembre 2015 (GMT -0500)
DW1566 | | Change Station
CLOSE
Current Station
Stations météorologiques personnelles
Location: Humboldt, TN
Altitude: 410 ft
Stations météo à proximité

Alt. 410 ft 35.88 °N, 89.02 °W | Updated 11 seconds ago

Ciel dégagé
Ciel dégagé
73.2 ° F
Paraît 76 ° F
N
0.4
Vent Variable Vent de SSO
Gusts 4.3 mph

Aujourd'hui
Haut(e) -- | Bas -- ° F
--% Risque de précip.
Hier
Haut(e) -- | Bas -- ° F
Precip. -- pouce
6:29 AM 7:21 PM
Lune gibbeuse décroissante, 72% visible
Pression 30.01 pouce
Visibilité 1.8 Miles terrestres
Nuages Ciel dégagé
indice de chaleur 76 ° F
Point de rosée 60 ° F
Humidité 62%
Précipitations 0.00 pouce
Profondeur de la couche neigeuse Non disponible.
UV 0 sur 12
Pollen 9.30 sur 12
Qualité de l'air Non disponible.
Flu Activity Non disponible.
SPECI KMKL 030844Z AUTO 00000KT 1 3/4SM BR CLR 21/19 A3001 RMK AO2 T02060194
Pression 30.01 pouce
Visibilité 1.8 Miles terrestres
Nuages Ciel dégagé
indice de chaleur 76 ° F
Point de rosée 60 ° F
Humidité 62%
Précipitations 0.00 pouce
Profondeur de la couche neigeuse Non disponible.
UV 0 sur 12
Pollen 9.30 sur 12
Qualité de l'air Non disponible.
Flu Activity Non disponible.
SPECI KMKL 030844Z AUTO 00000KT 1 3/4SM BR CLR 21/19 A3001 RMK AO2 T02060194
Nowcast | as of 3:25 am CDT on September 3, 2015

Patchy dense fog will be possible early this morning for areas along and east of the Mississippi River. Visibilities at times could drop to a quarter of a mile or less. Travelers should slow their speed...use their low beam headlights...and allow extra time in reaching their destinations this morning.

×

10-Day Weather Forecast

×

Almanac

Astronomie

Sep. 03, 2015 Lever Coucher
Temps réel
Crépuscule civil
Crépuscule nautique
Crépuscule astronomique
Lune
Durée de lumière visible
Longueur du jour
Tomorrow will be .
, % of the Moon is Illuminated

Extrêmes aujourd'hui

State Highs State Lows

Community

WunderPhotos

Upload Photos

1,851,919 Photos téléchargées !

WunderBlogs® & News

Nearby

Qualité de l'air

  Qualité de l'air Indice de la qualité de l'air Polluant
Not available.

Épaisseur de neige

Station Depth Altitude

Activité sismique

Ville Distance Mag. Time & Date
Minimum magnitude displayed is 2.5.

Températures des eaux côtières

Lieu Température

Stations

Stations météo à proximité

Emplacement de la station Température Refroidissement éolien Point de rosée Humidité Vent Precip. Alt. Mise à jour Type